^^
Grace C. Lehan Memorial Weather Station Historical Data
Daily Summary for February 9, 2022 Units:  English    Metric   Both
Daily Weekly Monthly Yearly
  High: Low: Average:
Temperature: 47.4 °F 31.9 °F 37.3 °F
Dew Point: 29.7 °F 16 °F 23.9 °F
Humidity: 80% 36% 60%
Wind Speed: 6.3mph 0mph 1.1mph
Wind Gust: 17mph - -
Wind- - West
Pressure: 30.29 in 30.21 in -
Precipitation: 0.00 in    
 
 
Tabular Data for February 9, 2022
Time Temperature Dew Point Pressure Wind Wind Speed Wind Gust Humidity Rainfall Rate (Hourly) solar
00:04 36.8 °F 29.6 °F 30.22 in Calm   7 mph 75% 0.00 in 0 W/m2
00:09 36.8 °F 29.6 °F 30.22 in NNW 0.3 mph 5 mph 75% 0.00 in 0 W/m2
00:14 36.7 °F 29.7 °F 30.22 in NNW 0.3 mph 5 mph 75.6% 0.00 in 0 W/m2
00:19 36.6 °F 29.7 °F 30.22 in Calm   5 mph 76% 0.00 in 0 W/m2
00:24 36.5 °F 29.6 °F 30.22 in NNW 0.3 mph 5 mph 76% 0.00 in 0 W/m2
00:29 36.3 °F 29.6 °F 30.22 in NNW 0.3 mph 5 mph 76.3% 0.00 in 0 W/m2
00:34 36.2 °F 29.7 °F 30.22 in NNW 1.2 mph 5 mph 77% 0.00 in 0 W/m2
00:39 36.1 °F 29.6 °F 30.22 in NNW 0.6 mph 5 mph 77% 0.00 in 0 W/m2
00:44 36 °F 29.6 °F 30.22 in NNW 1.7 mph 5 mph 77.4% 0.00 in 0 W/m2
00:49 35.9 °F 29.7 °F 30.22 in NNW 2.7 mph 9 mph 78% 0.00 in 0 W/m2
00:54 35.9 °F 29.4 °F 30.22 in NNW 0.7 mph 9 mph 77.1% 0.00 in 0 W/m2
00:59 35.8 °F 29.4 °F 30.22 in North 1.3 mph 9 mph 77% 0.00 in 0 W/m2
01:04 35.8 °F 29.3 °F 30.22 in NNW 2.2 mph 11 mph 77% 0.00 in 0 W/m2
01:09 35.8 °F 29.3 °F 30.22 in NNW 1 mph 11 mph 77% 0.00 in 0 W/m2
01:14 35.7 °F 29 °F 30.23 in North 0.4 mph 11 mph 76.3% 0.00 in 0 W/m2
01:19 35.7 °F 28.9 °F 30.23 in North 1.9 mph 11 mph 76% 0.00 in 0 W/m2
01:24 35.7 °F 28.9 °F 30.23 in NNW 1.1 mph 11 mph 76% 0.00 in 0 W/m2
01:29 35.6 °F 28.8 °F 30.23 in NNW 0.8 mph 11 mph 76% 0.00 in 0 W/m2
01:34 35.6 °F 28.6 °F 30.23 in NW 0.7 mph 11 mph 75.4% 0.00 in 0 W/m2
01:39 35.5 °F 28.4 °F 30.23 in NW 1.4 mph 12 mph 75% 0.00 in 0 W/m2
01:44 35.4 °F 28.2 °F 30.24 in NW 0.8 mph 12 mph 74.7% 0.00 in 0 W/m2
01:49 35.4 °F 27.9 °F 30.24 in NW 1 mph 12 mph 74% 0.00 in 0 W/m2
01:54 35.3 °F 27.9 °F 30.24 in NNW 1.8 mph 12 mph 74% 0.00 in 0 W/m2
01:59 35.3 °F 27.9 °F 30.24 in NNW 0.3 mph 12 mph 74% 0.00 in 0 W/m2
02:04 35.2 °F 27.8 °F 30.24 in NNW 0.2 mph 12 mph 74% 0.00 in 0 W/m2
02:09 35.1 °F 27.7 °F 30.25 in NNE 0.6 mph 5 mph 74% 0.00 in 0 W/m2
02:14 35.1 °F 27.6 °F 30.25 in NNE 0.2 mph 5 mph 74% 0.00 in 0 W/m2
02:19 35 °F 27.6 °F 30.25 in NNE 0.1 mph 5 mph 74% 0.00 in 0 W/m2
02:24 34.9 °F 27.5 °F 30.25 in NNE 0.5 mph 5 mph 74% 0.00 in 0 W/m2
02:29 34.8 °F 27.4 °F 30.25 in NNE 0.1 mph 5 mph 74% 0.00 in 0 W/m2
02:34 34.8 °F 27.4 °F 30.25 in NNE 0.1 mph 5 mph 74% 0.00 in 0 W/m2
02:39 34.7 °F 27.3 °F 30.25 in Calm   2 mph 74% 0.00 in 0 W/m2
02:44 34.6 °F 27.2 °F 30.25 in Calm   2 mph 74% 0.00 in 0 W/m2
02:49 34.5 °F 27.1 °F 30.25 in NNE 0.1 mph 2 mph 74% 0.00 in 0 W/m2
02:54 34.4 °F 27 °F 30.25 in NNE 0.2 mph 2 mph 74.1% 0.00 in 0 W/m2
02:59 34.3 °F 27.2 °F 30.25 in Calm   2 mph 75% 0.00 in 0 W/m2
03:04 34.1 °F 27.1 °F 30.25 in NNE 0.2 mph 3 mph 75% 0.00 in 0 W/m2
03:09 34 °F 27.2 °F 30.25 in NNE 0.2 mph 3 mph 75.7% 0.00 in 0 W/m2
03:14 33.9 °F 27.1 °F 30.24 in NNE 0.1 mph 3 mph 76% 0.00 in 0 W/m2
03:19 33.8 °F 27 °F 30.25 in NNE 0.1 mph 3 mph 76% 0.00 in 0 W/m2
03:24 33.7 °F 26.9 °F 30.24 in NNE 0.2 mph 3 mph 76% 0.00 in 0 W/m2
03:29 33.6 °F 26.9 °F 30.25 in Calm   3 mph 76.3% 0.00 in 0 W/m2
03:34 33.5 °F 27.1 °F 30.25 in NNE 0.2 mph 3 mph 77% 0.00 in 0 W/m2
03:39 33.4 °F 27 °F 30.24 in NNE 0.2 mph 4 mph 77% 0.00 in 0 W/m2
03:44 33.3 °F 26.9 °F 30.24 in Calm   4 mph 77% 0.00 in 0 W/m2
03:49 33.2 °F 26.8 °F 30.24 in Calm   4 mph 77% 0.00 in 0 W/m2
03:54 33.1 °F 26.9 °F 30.24 in Calm   4 mph 77.5% 0.00 in 0 W/m2
03:59 33 °F 26.9 °F 30.24 in Calm   4 mph 78% 0.00 in 0 W/m2
04:04 32.8 °F 26.7 °F 30.23 in Calm     78% 0.00 in 0 W/m2
04:09 32.8 °F 26.7 °F 30.23 in Calm     78% 0.00 in 0 W/m2
04:14 32.6 °F 26.5 °F 30.23 in Calm     78% 0.00 in 0 W/m2
04:19 32.5 °F 26.6 °F 30.23 in NNE 0.2 mph 2 mph 78.5% 0.00 in 0 W/m2
04:24 32.5 °F 26.6 °F 30.23 in Calm   2 mph 78.7% 0.00 in 0 W/m2
04:29 32.4 °F 26.6 °F 30.23 in NNE 0.1 mph 2 mph 79% 0.00 in 0 W/m2
04:34 32.4 °F 26.6 °F 30.23 in Calm   2 mph 79% 0.00 in 0 W/m2
04:39 32.4 °F 26.6 °F 30.23 in Calm     79% 0.00 in 0 W/m2
04:44 32.3 °F 26.5 °F 30.24 in Calm     79% 0.00 in 0 W/m2
04:49 32.3 °F 26.5 °F 30.24 in Calm     79% 0.00 in 0 W/m2
04:54 32.2 °F 26.5 °F 30.24 in Calm     79% 0.00 in 0 W/m2
04:59 32.2 °F 26.4 °F 30.23 in Calm     79% 0.00 in 0 W/m2
05:04 32.1 °F 26.3 °F 30.24 in Calm     79% 0.00 in 0 W/m2
05:09 32.1 °F 26.4 °F 30.24 in Calm     79.1% 0.00 in 0 W/m2
05:14 32 °F 26.5 °F 30.24 in Calm     80% 0.00 in 0 W/m2
05:19 32 °F 26.5 °F 30.24 in Calm   1 mph 80% 0.00 in 0 W/m2
05:24 31.9 °F 26.5 °F 30.24 in NNE 0.2 mph 2 mph 80% 0.00 in 0 W/m2
05:29 31.9 °F 26.4 °F 30.24 in Calm   2 mph 80% 0.00 in 0 W/m2
05:34 31.9 °F 26.4 °F 30.24 in NNE 0.2 mph 2 mph 80% 0.00 in 0 W/m2
05:39 31.9 °F 26.5 °F 30.24 in NNE 0.1 mph 3 mph 80% 0.00 in 0 W/m2
05:44 32 °F 26.5 °F 30.24 in NNE 0.1 mph 3 mph 80% 0.00 in 0 W/m2
05:49 32.1 °F 26.4 °F 30.25 in NNE 0.2 mph 3 mph 79.2% 0.00 in 0 W/m2
05:54 32.1 °F 26.3 °F 30.24 in Calm   3 mph 79% 0.00 in 0 W/m2
05:59 32.1 °F 26.3 °F 30.24 in NNE 0.3 mph 4 mph 79% 0.00 in 0 W/m2
06:04 32.1 °F 26.3 °F 30.24 in NNE 0.7 mph 6 mph 79% 0.00 in 0 W/m2
06:09 32.2 °F 26.4 °F 30.24 in North 0.8 mph 6 mph 79% 0.00 in 0 W/m2
06:14 32.2 °F 26.5 °F 30.24 in North 0.9 mph 6 mph 79% 0.00 in 0 W/m2
06:19 32.3 °F 26.5 °F 30.25 in NNW 1.2 mph 7 mph 79% 0.00 in 0 W/m2
06:24 32.4 °F 26.4 °F 30.25 in NNW 0.9 mph 7 mph 78.4% 0.00 in 0 W/m2
06:29 32.5 °F 26.4 °F 30.25 in NNW 0.1 mph 7 mph 78% 0.00 in 0 W/m2
06:34 32.5 °F 26.4 °F 30.25 in NNW 0.6 mph 7 mph 78% 0.00 in 0 W/m2
06:39 32.5 °F 26.4 °F 30.25 in NNW 0.7 mph 4 mph 78% 0.00 in 0 W/m2
06:44 32.5 °F 26.4 °F 30.26 in NNW 0.4 mph 4 mph 78% 0.00 in 0 W/m2
06:49 32.5 °F 26.4 °F 30.26 in NNW 1.1 mph 4 mph 78% 0.00 in 0 W/m2
06:54 32.6 °F 26.4 °F 30.26 in NNW 0.9 mph 5 mph 77.7% 0.00 in 0 W/m2
06:59 32.7 °F 26.4 °F 30.25 in NNW 1.3 mph 10 mph 77.5% 0.00 in 0 W/m2
07:04 32.8 °F 26.4 °F 30.25 in NNW 1 mph 10 mph 77% 0.00 in 5 W/m2
07:09 32.8 °F 26.4 °F 30.25 in NNW 1.4 mph 7 mph 77% 0.00 in 7 W/m2
07:14 32.9 °F 26.5 °F 30.25 in NNW 1.4 mph 7 mph 77% 0.00 in 9 W/m2
07:19 32.9 °F 26.5 °F 30.25 in NNW 1.1 mph 7 mph 77% 0.00 in 11 W/m2
07:24 33 °F 26.6 °F 30.25 in NNW 0.4 mph 7 mph 77% 0.00 in 12 W/m2
07:29 33 °F 26.6 °F 30.25 in NNW 0.5 mph 7 mph 77% 0.00 in 18 W/m2
07:34 33.1 °F 26.7 °F 30.25 in NNW 0.5 mph 7 mph 77% 0.00 in 33 W/m2
07:39 33.3 °F 26.8 °F 30.25 in NNW 1.1 mph 6 mph 77% 0.00 in 60 W/m2
07:44 33.7 °F 27.2 °F 30.25 in North 1.8 mph 7 mph 77% 0.00 in 70 W/m2
07:49 34.3 °F 27.8 °F 30.25 in NNW 0.9 mph 7 mph 76.8% 0.00 in 86 W/m2
07:54 34.9 °F 28 °F 30.25 in NNW 2.1 mph 8 mph 75.7% 0.00 in 86 W/m2
07:59 35.4 °F 28.2 °F 30.25 in NNW 1.1 mph 8 mph 74.5% 0.00 in 91 W/m2
08:09 36.5 °F 28.5 °F 30.25 in NNW 2.4 mph 10 mph 72.5% 0.00 in 127 W/m2
08:14 36.9 °F 28.4 °F 30.25 in NNW 3.1 mph 10 mph 71.1% 0.00 in 121 W/m2
08:19 37.3 °F 28.4 °F 30.25 in NNW 1.6 mph 10 mph 70% 0.00 in 144 W/m2
08:24 37.6 °F 28.5 °F 30.25 in NW 2 mph 11 mph 69.5% 0.00 in 178 W/m2
08:29 37.8 °F 28.6 °F 30.25 in NNW 2.1 mph 11 mph 69% 0.00 in 148 W/m2
08:34 38 °F 28.3 °F 30.25 in NNW 3.9 mph 11 mph 67.8% 0.00 in 176 W/m2
08:39 38.1 °F 28.3 °F 30.25 in NNW 2.4 mph 11 mph 67.7% 0.00 in 197 W/m2
08:44 38.3 °F 28.4 °F 30.26 in NNW 1 mph 11 mph 67.2% 0.00 in 183 W/m2
08:49 38.4 °F 28.4 °F 30.26 in NNE 1.3 mph 11 mph 67% 0.00 in 204 W/m2
08:54 38.7 °F 28.7 °F 30.26 in NNW 2.8 mph 12 mph 67% 0.00 in 197 W/m2
08:59 39 °F 28.6 °F 30.26 in North 1.7 mph 12 mph 66.1% 0.00 in 132 W/m2
09:04 39.1 °F 28.4 °F 30.25 in North 3.7 mph 12 mph 65.1% 0.00 in 153 W/m2
09:09 39 °F 28 °F 30.26 in NNW 2.5 mph 13 mph 64.3% 0.00 in 195 W/m2
09:14 39 °F 28.2 °F 30.26 in North 3 mph 13 mph 64.9% 0.00 in 156 W/m2
09:19 39 °F 27.8 °F 30.26 in North 1.7 mph 13 mph 64% 0.00 in 171 W/m2
09:24 39.1 °F 28.1 °F 30.26 in North 1.9 mph 13 mph 64.3% 0.00 in 162 W/m2
09:29 39.1 °F 28 °F 30.26 in North 1.3 mph 13 mph 64% 0.00 in 113 W/m2
09:34 39.2 °F 27.7 °F 30.25 in North 2.5 mph 13 mph 63.2% 0.00 in 120 W/m2
09:39 39.1 °F 27.6 °F 30.26 in North 3.8 mph 11 mph 63.2% 0.00 in 120 W/m2
09:44 39.1 °F 27.3 °F 30.26 in North 4.6 mph 12 mph 62.2% 0.00 in 81 W/m2
09:49 39.1 °F 27.2 °F 30.26 in North 3.5 mph 17 mph 62% 0.00 in 88 W/m2
09:54 39.1 °F 27.1 °F 30.26 in North 4 mph 17 mph 61.8% 0.00 in 141 W/m2
09:59 39.2 °F 26.9 °F 30.26 in NNW 2.9 mph 17 mph 61% 0.00 in 141 W/m2
10:04 39.5 °F 27 °F 30.26 in North 3 mph 17 mph 60.7% 0.00 in 248 W/m2
10:09 39.9 °F 27.2 °F 30.26 in NNE 2.3 mph 14 mph 60% 0.00 in 304 W/m2
10:14 40.6 °F 27.5 °F 30.26 in North 3.2 mph 14 mph 59% 0.00 in 420 W/m2
10:19 41.4 °F 27.5 °F 30.26 in North 4 mph 14 mph 57.4% 0.00 in 434 W/m2
10:24 42.2 °F 27.7 °F 30.26 in North 2.7 mph 14 mph 56.1% 0.00 in 439 W/m2
10:29 42.9 °F 27.3 °F 30.26 in NNE 1.7 mph 14 mph 53.8% 0.00 in 432 W/m2
10:34 43.3 °F 27.6 °F 30.26 in NNE 1 mph 14 mph 53.7% 0.00 in 330 W/m2
10:39 43.9 °F 28.7 °F 30.25 in NNW 1.4 mph 7 mph 54.8% 0.00 in 230 W/m2
10:44 44.4 °F 28.1 °F 30.25 in NW 3.5 mph 13 mph 52.4% 0.00 in 213 W/m2
10:49 44.4 °F 27.4 °F 30.25 in North 3.5 mph 13 mph 51% 0.00 in 172 W/m2
10:54 44.2 °F 27.2 °F 30.25 in NNW 2.4 mph 13 mph 50.9% 0.00 in 179 W/m2
10:59 44.1 °F 27.2 °F 30.25 in NNW 5.1 mph 14 mph 51.2% 0.00 in 218 W/m2
11:04 44.1 °F 27.1 °F 30.24 in NNW 3 mph 14 mph 51% 0.00 in 181 W/m2
11:09 44 °F 26.9 °F 30.24 in NNW 4 mph 13 mph 50.6% 0.00 in 65 W/m2
11:14 43.9 °F 26.5 °F 30.23 in North 1.8 mph 13 mph 50% 0.00 in 62 W/m2
11:19 44 °F 26.4 °F 30.23 in NNE 1.3 mph 13 mph 49.8% 0.00 in 93 W/m2
11:24 44.1 °F 26.6 °F 30.23 in NNW 0.7 mph 13 mph 49.8% 0.00 in 135 W/m2
11:29 44.3 °F 26.5 °F 30.23 in NNW 2.4 mph 13 mph 49.2% 0.00 in 271 W/m2
11:34 44.6 °F 26.5 °F 30.23 in NNW 2.8 mph 13 mph 48.6% 0.00 in 239 W/m2
11:39 44.9 °F 26.4 °F 30.23 in NNW 3.5 mph 14 mph 47.8% 0.00 in 264 W/m2
11:44 45.1 °F 26.4 °F 30.23 in NNW 4.4 mph 14 mph 47.5% 0.00 in 257 W/m2
11:49 45.4 °F 26.3 °F 30.23 in NNW 3.2 mph 14 mph 47% 0.00 in 323 W/m2
11:54 45.6 °F 25.8 °F 30.22 in North 2.2 mph 14 mph 45.5% 0.00 in 257 W/m2
11:59 45.7 °F 25.5 °F 30.22 in NNW 4.1 mph 14 mph 45% 0.00 in 320 W/m2
12:00 45.6 °F 25.5 °F 30.22 in NNW 4 mph 14 mph 45% 0.00 in 58 W/m2
12:09 45.9 °F 25.6 °F 30.22 in North 2.1 mph 7 mph 44.7% 0.00 in 471 W/m2
12:14 46 °F 25.3 °F 30.22 in NNW 4.6 mph 12 mph 44% 0.00 in 378 W/m2
12:19 46 °F 24.8 °F 30.22 in NNW 4.7 mph 14 mph 43% 0.00 in 271 W/m2
12:24 46 °F 24.8 °F 30.22 in NNW 1.8 mph 14 mph 43% 0.00 in 156 W/m2
12:29 46.1 °F 25 °F 30.22 in North 2.5 mph 14 mph 43.3% 0.00 in 128 W/m2
12:34 46.4 °F 24.6 °F 30.22 in North 3.9 mph 14 mph 42.1% 0.00 in 253 W/m2
12:39 46.7 °F 24.3 °F 30.22 in NNW 3.1 mph 13 mph 41% 0.00 in 332 W/m2
12:44 47 °F 24.3 °F 30.21 in NNE 2.4 mph 13 mph 40.6% 0.00 in 257 W/m2
12:49 47 °F 23.8 °F 30.21 in NNW 3 mph 13 mph 39.6% 0.00 in 290 W/m2
12:54 47.1 °F 23.2 °F 30.21 in NNW 2.7 mph 13 mph 38.6% 0.00 in 134 W/m2
12:59 47.1 °F 23.6 °F 30.21 in North 1.9 mph 13 mph 39.3% 0.00 in 362 W/m2
13:04 47.2 °F 23.7 °F 30.21 in NNW 2.4 mph 13 mph 39.2% 0.00 in 418 W/m2
13:09 47.4 °F 23.3 °F 30.21 in NNW 3.6 mph 14 mph 38.2% 0.00 in 387 W/m2
13:14 47.4 °F 22.2 °F 30.21 in NNW 5.4 mph 14 mph 36.6% 0.00 in 118 W/m2
13:19 47.2 °F 21.7 °F 30.21 in NNW 6.3 mph 15 mph 36.1% 0.00 in 355 W/m2
13:30 46.9 °F 22 °F 30.21 in NNW 4 mph 15 mph 37% 0.00 in 139 W/m2
14:00 47.2 °F 21.6 °F 30.21 in NE 2 mph 10 mph 36% 0.00 in 148 W/m2
14:30 47.2 °F 21.6 °F 30.22 in NNW 2 mph 13 mph 36% 0.00 in 95 W/m2
15:00 45.9 °F 20.5 °F 30.22 in NE 2 mph 12 mph 36% 0.00 in 25 W/m2
15:30 45.1 °F 20.4 °F 30.22 in North 1 mph 5 mph 37% 0.00 in 19 W/m2
16:04 44 °F 18.8 °F 30.22 in NNW 0.5 mph 5 mph 36.1% 0.00 in 19 W/m2
16:09 43.7 °F 18.8 °F 30.23 in NNW 0.5 mph 3 mph 36.4% 0.00 in 7 W/m2
16:14 43.5 °F 18.7 °F 30.23 in NNW 0.1 mph 3 mph 36.6% 0.00 in 5 W/m2
16:19 43.3 °F 18.8 °F 30.22 in NNW 0.3 mph 3 mph 37% 0.00 in 0 W/m2
16:24 43.1 °F 18.9 °F 30.22 in NNW 0.1 mph 3 mph 37.5% 0.00 in 0 W/m2
16:29 42.8 °F 19 °F 30.22 in Calm   3 mph 38% 0.00 in 0 W/m2
16:34 42.6 °F 18.9 °F 30.22 in Calm   3 mph 38.1% 0.00 in 0 W/m2
16:39 42.4 °F 18.7 °F 30.22 in Calm   1 mph 38.1% 0.00 in 0 W/m2
16:44 42.1 °F 18.9 °F 30.22 in NNW 0.5 mph 3 mph 38.9% 0.00 in 0 W/m2
16:49 41.9 °F 18.8 °F 30.22 in NNW 0.2 mph 3 mph 39% 0.00 in 0 W/m2
16:54 41.7 °F 18.6 °F 30.22 in NNW 0.1 mph 3 mph 39% 0.00 in 0 W/m2
16:59 41.5 °F 18.5 °F 30.23 in NNW 0.1 mph 3 mph 39.2% 0.00 in 0 W/m2
17:04 41.2 °F 18.5 °F 30.23 in NNW 0.7 mph 4 mph 39.5% 0.00 in 0 W/m2
17:09 41 °F 18.5 °F 30.23 in Calm   4 mph 40% 0.00 in 0 W/m2
17:14 40.8 °F 18.4 °F 30.23 in NW 0.7 mph 6 mph 40% 0.00 in 0 W/m2
17:19 40.6 °F 18.2 °F 30.23 in NW 0.4 mph 6 mph 40% 0.00 in 0 W/m2
17:24 40.5 °F 18.1 °F 30.24 in NW 0.1 mph 6 mph 40% 0.00 in 0 W/m2
17:29 40.3 °F 18.4 °F 30.23 in NW 0.1 mph 6 mph 40.9% 0.00 in 0 W/m2
17:34 40.1 °F 18.3 °F 30.23 in Calm   6 mph 41% 0.00 in 0 W/m2
17:39 39.8 °F 18.1 °F 30.23 in NW 0.5 mph 4 mph 41% 0.00 in 0 W/m2
17:44 39.6 °F 17.7 °F 30.24 in NW 0.3 mph 4 mph 40.6% 0.00 in 0 W/m2
17:49 39.5 °F 17.7 °F 30.24 in Calm   4 mph 41% 0.00 in 0 W/m2
17:54 39.3 °F 17.5 °F 30.24 in NW 0.1 mph 4 mph 40.8% 0.00 in 0 W/m2
17:59 39.1 °F 17.8 °F 30.24 in NW 0.1 mph 4 mph 41.7% 0.00 in 0 W/m2
18:04 38.9 °F 17.8 °F 30.24 in NW 0.1 mph 4 mph 42% 0.00 in 0 W/m2
18:09 38.8 °F 17.8 °F 30.24 in NW 0.1 mph 1 mph 42.2% 0.00 in 0 W/m2
18:14 38.6 °F 18 °F 30.24 in Calm   1 mph 43% 0.00 in 0 W/m2
18:19 38.4 °F 17.9 °F 30.24 in Calm   1 mph 43% 0.00 in 0 W/m2
18:24 38.2 °F 18.2 °F 30.24 in Calm   1 mph 43.9% 0.00 in 0 W/m2
18:29 38.1 °F 18.4 °F 30.24 in Calm   1 mph 44.6% 0.00 in 0 W/m2
18:34 37.9 °F 18.4 °F 30.24 in Calm   1 mph 45% 0.00 in 0 W/m2
18:39 37.6 °F 19.1 °F 30.24 in NW 0.2 mph 2 mph 46.7% 0.00 in 0 W/m2
18:44 37.4 °F 20.8 °F 30.24 in NW 0.3 mph 2 mph 50.7% 0.00 in 0 W/m2
18:49 37.3 °F 21.7 °F 30.24 in Calm   2 mph 52.8% 0.00 in 0 W/m2
18:54 37.2 °F 22.2 °F 30.25 in Calm   2 mph 54.3% 0.00 in 0 W/m2
18:59 37.1 °F 22.7 °F 30.25 in NW 0.2 mph 3 mph 55.6% 0.00 in 0 W/m2
19:04 37 °F 22.8 °F 30.25 in Calm   3 mph 56% 0.00 in 0 W/m2
19:09 36.8 °F 22.9 °F 30.26 in NW 0.1 mph 1 mph 56.7% 0.00 in 0 W/m2
19:14 36.7 °F 23 °F 30.26 in Calm   1 mph 57.2% 0.00 in 0 W/m2
19:19 36.5 °F 23.2 °F 30.26 in NW 0.2 mph 2 mph 58% 0.00 in 0 W/m2
19:24 36.4 °F 23.7 °F 30.26 in NW 0.2 mph 2 mph 59.5% 0.00 in 0 W/m2
19:29 36.3 °F 23.3 °F 30.26 in Calm   2 mph 59% 0.00 in 0 W/m2
19:34 36.2 °F 23.2 °F 30.26 in NW 0.1 mph 2 mph 59% 0.00 in 0 W/m2
19:39 36.1 °F 23.2 °F 30.26 in NW 0.2 mph 2 mph 59% 0.00 in 0 W/m2
19:44 36 °F 23.1 °F 30.26 in NW 0.7 mph 4 mph 59% 0.00 in 0 W/m2
19:49 35.9 °F 22.6 °F 30.26 in NW 0.7 mph 5 mph 58% 0.00 in 0 W/m2
19:54 35.8 °F 22.2 °F 30.26 in NNW 1.7 mph 5 mph 57.3% 0.00 in 0 W/m2
19:59 35.8 °F 21.7 °F 30.26 in NNW 1.1 mph 5 mph 56.2% 0.00 in 0 W/m2
20:04 35.8 °F 20.8 °F 30.26 in NNW 0.4 mph 1 mph 54% 0.00 in 0 W/m2
20:09 35.8 °F 20.8 °F 30.26 in NNW 1.3 mph 6 mph 54% 0.00 in 0 W/m2
20:14 35.8 °F 20.8 °F 30.26 in NNW 0.4 mph 6 mph 54% 0.00 in 0 W/m2
20:19 35.8 °F 20.6 °F 30.26 in NNW 0.9 mph 6 mph 53.6% 0.00 in 0 W/m2
20:24 35.7 °F 20.4 °F 30.26 in NNW 0.6 mph 6 mph 53.3% 0.00 in 0 W/m2
20:29 35.7 °F 20.3 °F 30.26 in NNW 1.3 mph 6 mph 53% 0.00 in 0 W/m2
20:34 35.6 °F 20.2 °F 30.26 in NNW 0.5 mph 6 mph 53% 0.00 in 0 W/m2
20:39 35.5 °F 19.9 °F 30.27 in NNW 0.3 mph 3 mph 52.6% 0.00 in 0 W/m2
20:44 35.5 °F 19.6 °F 30.27 in NNW 0.8 mph 6 mph 52% 0.00 in 0 W/m2
20:49 35.4 °F 19.5 °F 30.27 in NNW 1.1 mph 6 mph 52% 0.00 in 0 W/m2
20:54 35.4 °F 19.2 °F 30.26 in NNW 0.2 mph 6 mph 51.3% 0.00 in 0 W/m2
20:59 35.3 °F 19 °F 30.26 in NNW 0.7 mph 6 mph 51% 0.00 in 0 W/m2
21:04 35.3 °F 18.7 °F 30.27 in NNW 0.8 mph 6 mph 50.3% 0.00 in 0 W/m2
21:09 35.2 °F 18.4 °F 30.27 in NNW 0.9 mph 6 mph 50% 0.00 in 0 W/m2
21:14 35.2 °F 18.4 °F 30.27 in NNW 1 mph 6 mph 50% 0.00 in 0 W/m2
21:19 35.1 °F 18.2 °F 30.27 in NNW 1.5 mph 7 mph 49.6% 0.00 in 0 W/m2
21:24 35 °F 18 °F 30.27 in NNW 1 mph 7 mph 49.3% 0.00 in 0 W/m2
21:29 35 °F 17.8 °F 30.27 in NNW 0.3 mph 7 mph 49% 0.00 in 0 W/m2
21:34 34.9 °F 17.7 °F 30.28 in NNW 0.1 mph 7 mph 49% 0.00 in 0 W/m2
21:39 34.8 °F 17.1 °F 30.28 in NNW 0.1 mph 2 mph 48% 0.00 in 0 W/m2
21:44 34.7 °F 17.1 °F 30.28 in Calm   2 mph 48% 0.00 in 0 W/m2
21:49 34.6 °F 17 °F 30.28 in Calm   2 mph 48.1% 0.00 in 0 W/m2
21:54 34.5 °F 17.3 °F 30.27 in Calm   2 mph 49% 0.00 in 0 W/m2
21:59 34.4 °F 17.3 °F 30.27 in Calm   2 mph 49.2% 0.00 in 0 W/m2
22:04 34.2 °F 17.5 °F 30.28 in NNW 0.1 mph 3 mph 50% 0.00 in 0 W/m2
22:09 34.1 °F 17.4 °F 30.27 in Calm   3 mph 50% 0.00 in 0 W/m2
22:14 33.9 °F 17.3 °F 30.28 in NNW 0.4 mph 4 mph 50.1% 0.00 in 0 W/m2
22:19 33.8 °F 17.5 °F 30.28 in NNW 0.1 mph 4 mph 50.9% 0.00 in 0 W/m2
22:24 33.7 °F 17.5 °F 30.28 in NNW 0.7 mph 4 mph 51% 0.00 in 0 W/m2
22:29 33.6 °F 17.4 °F 30.28 in NNW 0.5 mph 5 mph 51% 0.00 in 0 W/m2
22:34 33.5 °F 17.3 °F 30.28 in Calm   5 mph 51% 0.00 in 0 W/m2
22:39 33.4 °F 17.2 °F 30.28 in Calm   1 mph 51% 0.00 in 0 W/m2
22:44 33.3 °F 17.1 °F 30.28 in NNW 0.1 mph 3 mph 51% 0.00 in 0 W/m2
22:49 33.2 °F 17 °F 30.28 in NNW 0.2 mph 4 mph 51% 0.00 in 0 W/m2
22:54 33.1 °F 17 °F 30.29 in NNW 0.4 mph 6 mph 51% 0.00 in 0 W/m2
22:59 33.1 °F 16.9 °F 30.29 in NNW 0.1 mph 6 mph 51% 0.00 in 0 W/m2
23:09 33 °F 16.8 °F 30.29 in Calm     50.9% 0.00 in 0 W/m2
23:14 32.9 °F 16.8 °F 30.29 in North 0.1 mph 1 mph 51% 0.00 in 0 W/m2
23:19 32.9 °F 16.4 °F 30.29 in North 0.2 mph 2 mph 50.4% 0.00 in 0 W/m2
23:24 32.8 °F 16.2 °F 30.29 in North 0.7 mph 7 mph 50% 0.00 in 0 W/m2
23:29 32.8 °F 16.2 °F 30.29 in NNW 0.2 mph 7 mph 50% 0.00 in 0 W/m2
23:34 32.8 °F 16.3 °F 30.29 in NNW 0.6 mph 7 mph 50.2% 0.00 in 0 W/m2
23:39 32.8 °F 16.4 °F 30.28 in NNW 0.6 mph 3 mph 50.4% 0.00 in 0 W/m2
23:44 32.7 °F 16.1 °F 30.28 in NNW 0.2 mph 3 mph 50% 0.00 in 0 W/m2
23:49 32.7 °F 16.1 °F 30.28 in NNW 0.2 mph 3 mph 50% 0.00 in 0 W/m2
23:54 32.6 °F 16.1 °F 30.29 in Calm   3 mph 50.2% 0.00 in 0 W/m2
23:59 32.5 °F 16 °F 30.29 in NNW 0.2 mph 3 mph 50% 0.00 in 0 W/m2
Hartford County Weather
Compliments of Weather Underground - 4 mb